sensor_id;sensor_type;location;lat;lon;timestamp;temperature;humidity
8527;DHT22;4301;48.362;8.478;2022-08-25T00:02:04;15.60;99.90
8527;DHT22;4301;48.362;8.478;2022-08-25T00:04:32;15.50;99.90
8527;DHT22;4301;48.362;8.478;2022-08-25T00:07:01;15.50;99.90
8527;DHT22;4301;48.362;8.478;2022-08-25T00:09:29;15.50;99.90
8527;DHT22;4301;48.362;8.478;2022-08-25T00:11:57;15.40;99.90
8527;DHT22;4301;48.362;8.478;2022-08-25T00:14:26;15.40;99.90
8527;DHT22;4301;48.362;8.478;2022-08-25T00:16:54;15.40;99.90
8527;DHT22;4301;48.362;8.478;2022-08-25T00:19:25;15.30;99.90
8527;DHT22;4301;48.362;8.478;2022-08-25T00:21:52;15.20;99.90
8527;DHT22;4301;48.362;8.478;2022-08-25T00:24:20;15.10;99.90
8527;DHT22;4301;48.362;8.478;2022-08-25T00:26:50;15.10;99.90
8527;DHT22;4301;48.362;8.478;2022-08-25T00:29:18;15.00;99.90
8527;DHT22;4301;48.362;8.478;2022-08-25T00:31:46;14.90;99.90
8527;DHT22;4301;48.362;8.478;2022-08-25T00:34:16;14.90;99.90
8527;DHT22;4301;48.362;8.478;2022-08-25T00:36:45;14.90;99.90
8527;DHT22;4301;48.362;8.478;2022-08-25T00:39:13;14.90;99.90
8527;DHT22;4301;48.362;8.478;2022-08-25T00:41:41;14.90;99.90
8527;DHT22;4301;48.362;8.478;2022-08-25T00:44:10;14.90;99.90
8527;DHT22;4301;48.362;8.478;2022-08-25T00:46:39;14.90;99.90
8527;DHT22;4301;48.362;8.478;2022-08-25T00:49:10;14.80;99.90
8527;DHT22;4301;48.362;8.478;2022-08-25T00:51:42;14.80;99.90
8527;DHT22;4301;48.362;8.478;2022-08-25T00:54:14;14.70;99.90
8527;DHT22;4301;48.362;8.478;2022-08-25T00:56:42;14.60;99.90
8527;DHT22;4301;48.362;8.478;2022-08-25T00:59:10;14.60;99.90
8527;DHT22;4301;48.362;8.478;2022-08-25T01:01:37;14.50;99.90
8527;DHT22;4301;48.362;8.478;2022-08-25T01:04:04;14.50;99.90
8527;DHT22;4301;48.362;8.478;2022-08-25T01:06:34;14.50;99.90
8527;DHT22;4301;48.362;8.478;2022-08-25T01:09:03;14.50;99.90
8527;DHT22;4301;48.362;8.478;2022-08-25T01:11:33;14.50;99.90
8527;DHT22;4301;48.362;8.478;2022-08-25T01:14:01;14.50;99.90
8527;DHT22;4301;48.362;8.478;2022-08-25T01:16:32;14.50;99.90
8527;DHT22;4301;48.362;8.478;2022-08-25T01:18:59;14.50;99.90
8527;DHT22;4301;48.362;8.478;2022-08-25T01:21:31;14.50;99.90
8527;DHT22;4301;48.362;8.478;2022-08-25T01:24:03;14.40;99.90
8527;DHT22;4301;48.362;8.478;2022-08-25T01:26:32;14.40;99.90
8527;DHT22;4301;48.362;8.478;2022-08-25T01:29:04;14.30;99.90
8527;DHT22;4301;48.362;8.478;2022-08-25T01:31:47;14.30;99.90
8527;DHT22;4301;48.362;8.478;2022-08-25T01:34:15;14.30;99.90
8527;DHT22;4301;48.362;8.478;2022-08-25T01:36:44;14.20;99.90
8527;DHT22;4301;48.362;8.478;2022-08-25T01:39:12;14.20;99.90
8527;DHT22;4301;48.362;8.478;2022-08-25T01:41:48;14.20;99.90
8527;DHT22;4301;48.362;8.478;2022-08-25T01:44:16;14.20;99.90
8527;DHT22;4301;48.362;8.478;2022-08-25T01:46:44;14.30;99.90
8527;DHT22;4301;48.362;8.478;2022-08-25T01:49:11;14.20;99.90
8527;DHT22;4301;48.362;8.478;2022-08-25T01:51:42;14.20;99.90
8527;DHT22;4301;48.362;8.478;2022-08-25T01:54:11;14.20;99.90
8527;DHT22;4301;48.362;8.478;2022-08-25T01:56:38;14.20;99.90
8527;DHT22;4301;48.362;8.478;2022-08-25T01:59:05;14.10;99.90
8527;DHT22;4301;48.362;8.478;2022-08-25T02:01:32;14.10;99.90
8527;DHT22;4301;48.362;8.478;2022-08-25T02:03:59;14.00;99.90
8527;DHT22;4301;48.362;8.478;2022-08-25T02:06:29;13.90;99.90
8527;DHT22;4301;48.362;8.478;2022-08-25T02:08:58;13.90;99.90
8527;DHT22;4301;48.362;8.478;2022-08-25T02:11:27;13.90;99.90
8527;DHT22;4301;48.362;8.478;2022-08-25T02:13:54;13.90;99.90
8527;DHT22;4301;48.362;8.478;2022-08-25T02:16:24;13.90;99.90
8527;DHT22;4301;48.362;8.478;2022-08-25T02:18:52;13.90;99.90
8527;DHT22;4301;48.362;8.478;2022-08-25T02:21:20;13.80;99.90
8527;DHT22;4301;48.362;8.478;2022-08-25T02:23:47;13.80;99.90
8527;DHT22;4301;48.362;8.478;2022-08-25T02:26:14;13.90;99.90
8527;DHT22;4301;48.362;8.478;2022-08-25T02:28:45;13.90;99.90
8527;DHT22;4301;48.362;8.478;2022-08-25T02:31:13;13.80;99.90
8527;DHT22;4301;48.362;8.478;2022-08-25T02:33:41;13.70;99.90
8527;DHT22;4301;48.362;8.478;2022-08-25T02:36:08;13.70;99.90
8527;DHT22;4301;48.362;8.478;2022-08-25T02:38:36;13.70;99.90
8527;DHT22;4301;48.362;8.478;2022-08-25T02:41:09;13.70;99.90
8527;DHT22;4301;48.362;8.478;2022-08-25T02:43:37;13.70;99.90
8527;DHT22;4301;48.362;8.478;2022-08-25T02:46:06;13.60;99.90
8527;DHT22;4301;48.362;8.478;2022-08-25T02:48:33;13.60;99.90
8527;DHT22;4301;48.362;8.478;2022-08-25T02:51:01;13.60;99.90
8527;DHT22;4301;48.362;8.478;2022-08-25T02:53:28;13.50;99.90
8527;DHT22;4301;48.362;8.478;2022-08-25T02:55:55;13.50;99.90
8527;DHT22;4301;48.362;8.478;2022-08-25T02:58:22;13.50;99.90
8527;DHT22;4301;48.362;8.478;2022-08-25T03:00:49;13.50;99.90
8527;DHT22;4301;48.362;8.478;2022-08-25T03:03:19;13.50;99.90
8527;DHT22;4301;48.362;8.478;2022-08-25T03:05:46;13.50;99.90
8527;DHT22;4301;48.362;8.478;2022-08-25T03:08:14;13.50;99.90
8527;DHT22;4301;48.362;8.478;2022-08-25T03:10:41;13.50;99.90
8527;DHT22;4301;48.362;8.478;2022-08-25T03:13:09;13.50;99.90
8527;DHT22;4301;48.362;8.478;2022-08-25T03:15:35;13.40;99.90
8527;DHT22;4301;48.362;8.478;2022-08-25T03:18:03;13.30;99.90
8527;DHT22;4301;48.362;8.478;2022-08-25T03:20:32;13.30;99.90
8527;DHT22;4301;48.362;8.478;2022-08-25T03:23:00;13.30;99.90
8527;DHT22;4301;48.362;8.478;2022-08-25T03:25:28;13.30;99.90
8527;DHT22;4301;48.362;8.478;2022-08-25T03:28:13;13.30;99.90
8527;DHT22;4301;48.362;8.478;2022-08-25T03:30:40;13.30;99.90
8527;DHT22;4301;48.362;8.478;2022-08-25T03:33:08;13.20;99.90
8527;DHT22;4301;48.362;8.478;2022-08-25T03:35:37;13.20;99.90
8527;DHT22;4301;48.362;8.478;2022-08-25T03:38:04;13.20;99.90
8527;DHT22;4301;48.362;8.478;2022-08-25T03:40:32;13.10;99.90
8527;DHT22;4301;48.362;8.478;2022-08-25T03:42:59;13.10;99.90
8527;DHT22;4301;48.362;8.478;2022-08-25T03:45:26;13.10;99.90
8527;DHT22;4301;48.362;8.478;2022-08-25T03:47:53;13.10;99.90
8527;DHT22;4301;48.362;8.478;2022-08-25T03:50:21;13.10;99.90
8527;DHT22;4301;48.362;8.478;2022-08-25T03:52:52;13.20;99.90
8527;DHT22;4301;48.362;8.478;2022-08-25T03:55:21;13.20;99.90
8527;DHT22;4301;48.362;8.478;2022-08-25T03:57:48;13.20;99.90
8527;DHT22;4301;48.362;8.478;2022-08-25T04:00:16;13.00;99.90
8527;DHT22;4301;48.362;8.478;2022-08-25T04:02:43;13.00;99.90
8527;DHT22;4301;48.362;8.478;2022-08-25T04:05:10;12.90;99.90
8527;DHT22;4301;48.362;8.478;2022-08-25T04:07:37;12.90;99.90
8527;DHT22;4301;48.362;8.478;2022-08-25T04:10:08;12.80;99.90
8527;DHT22;4301;48.362;8.478;2022-08-25T04:12:35;12.80;99.90
8527;DHT22;4301;48.362;8.478;2022-08-25T04:15:04;12.80;99.90
8527;DHT22;4301;48.362;8.478;2022-08-25T04:17:32;12.70;99.90
8527;DHT22;4301;48.362;8.478;2022-08-25T04:20:00;12.70;99.90
8527;DHT22;4301;48.362;8.478;2022-08-25T04:22:28;12.80;99.90
8527;DHT22;4301;48.362;8.478;2022-08-25T04:24:57;12.80;99.90
8527;DHT22;4301;48.362;8.478;2022-08-25T04:27:25;12.80;99.90
8527;DHT22;4301;48.362;8.478;2022-08-25T04:29:52;12.70;99.90
8527;DHT22;4301;48.362;8.478;2022-08-25T04:32:19;12.70;99.90
8527;DHT22;4301;48.362;8.478;2022-08-25T04:34:47;12.70;99.90
8527;DHT22;4301;48.362;8.478;2022-08-25T04:37:14;12.70;99.90
8527;DHT22;4301;48.362;8.478;2022-08-25T04:39:41;12.70;99.90
8527;DHT22;4301;48.362;8.478;2022-08-25T04:42:08;12.70;99.90
8527;DHT22;4301;48.362;8.478;2022-08-25T04:44:37;12.70;99.90
8527;DHT22;4301;48.362;8.478;2022-08-25T04:47:04;12.70;99.90
8527;DHT22;4301;48.362;8.478;2022-08-25T04:49:31;12.70;99.90
8527;DHT22;4301;48.362;8.478;2022-08-25T04:51:58;12.70;99.90
8527;DHT22;4301;48.362;8.478;2022-08-25T04:54:25;12.70;99.90
8527;DHT22;4301;48.362;8.478;2022-08-25T04:56:52;12.60;99.90
8527;DHT22;4301;48.362;8.478;2022-08-25T04:59:19;12.70;99.90
8527;DHT22;4301;48.362;8.478;2022-08-25T05:01:48;12.70;99.90
8527;DHT22;4301;48.362;8.478;2022-08-25T05:04:15;12.60;99.90
8527;DHT22;4301;48.362;8.478;2022-08-25T05:06:43;12.60;99.90
8527;DHT22;4301;48.362;8.478;2022-08-25T05:09:11;12.70;99.90
8527;DHT22;4301;48.362;8.478;2022-08-25T05:11:38;12.70;99.90
8527;DHT22;4301;48.362;8.478;2022-08-25T05:14:05;12.70;99.90
8527;DHT22;4301;48.362;8.478;2022-08-25T05:16:36;12.60;99.90
8527;DHT22;4301;48.362;8.478;2022-08-25T05:19:05;12.60;99.90
8527;DHT22;4301;48.362;8.478;2022-08-25T05:21:33;12.70;99.90
8527;DHT22;4301;48.362;8.478;2022-08-25T05:24:01;12.70;99.90
8527;DHT22;4301;48.362;8.478;2022-08-25T05:26:29;12.70;99.90
8527;DHT22;4301;48.362;8.478;2022-08-25T05:28:58;12.80;99.90
8527;DHT22;4301;48.362;8.478;2022-08-25T05:31:25;12.80;99.90
8527;DHT22;4301;48.362;8.478;2022-08-25T05:33:53;12.90;99.90
8527;DHT22;4301;48.362;8.478;2022-08-25T05:36:23;12.90;99.90
8527;DHT22;4301;48.362;8.478;2022-08-25T05:38:50;13.00;99.90
8527;DHT22;4301;48.362;8.478;2022-08-25T05:41:19;13.10;99.90
8527;DHT22;4301;48.362;8.478;2022-08-25T05:43:48;13.10;99.90
8527;DHT22;4301;48.362;8.478;2022-08-25T05:46:16;13.20;99.90
8527;DHT22;4301;48.362;8.478;2022-08-25T05:48:43;13.20;99.90
8527;DHT22;4301;48.362;8.478;2022-08-25T05:51:11;13.20;99.90
8527;DHT22;4301;48.362;8.478;2022-08-25T05:53:42;13.30;99.90
8527;DHT22;4301;48.362;8.478;2022-08-25T05:56:10;13.40;99.90
8527;DHT22;4301;48.362;8.478;2022-08-25T05:58:39;13.50;99.90
8527;DHT22;4301;48.362;8.478;2022-08-25T06:01:06;13.60;99.90
8527;DHT22;4301;48.362;8.478;2022-08-25T06:03:51;13.70;99.90
8527;DHT22;4301;48.362;8.478;2022-08-25T06:06:18;13.80;99.90
8527;DHT22;4301;48.362;8.478;2022-08-25T06:08:47;13.80;99.90
8527;DHT22;4301;48.362;8.478;2022-08-25T06:11:14;13.90;99.90
8527;DHT22;4301;48.362;8.478;2022-08-25T06:13:42;14.00;99.90
8527;DHT22;4301;48.362;8.478;2022-08-25T06:16:10;14.10;99.90
8527;DHT22;4301;48.362;8.478;2022-08-25T06:18:37;14.20;99.90
8527;DHT22;4301;48.362;8.478;2022-08-25T06:21:09;14.40;99.90
8527;DHT22;4301;48.362;8.478;2022-08-25T06:23:37;14.50;99.90
8527;DHT22;4301;48.362;8.478;2022-08-25T06:26:06;14.60;99.90
8527;DHT22;4301;48.362;8.478;2022-08-25T06:28:35;14.70;99.90
8527;DHT22;4301;48.362;8.478;2022-08-25T06:31:02;14.80;99.90
8527;DHT22;4301;48.362;8.478;2022-08-25T06:33:30;14.90;99.90
8527;DHT22;4301;48.362;8.478;2022-08-25T06:35:57;15.10;99.90
8527;DHT22;4301;48.362;8.478;2022-08-25T06:38:24;15.30;99.90
8527;DHT22;4301;48.362;8.478;2022-08-25T06:40:52;15.40;99.90
8527;DHT22;4301;48.362;8.478;2022-08-25T06:43:23;15.60;99.90
8527;DHT22;4301;48.362;8.478;2022-08-25T06:45:50;15.80;99.90
8527;DHT22;4301;48.362;8.478;2022-08-25T06:48:17;16.10;99.90
8527;DHT22;4301;48.362;8.478;2022-08-25T06:50:44;16.30;99.90
8527;DHT22;4301;48.362;8.478;2022-08-25T06:53:11;16.50;99.90
8527;DHT22;4301;48.362;8.478;2022-08-25T06:55:38;16.70;99.90
8527;DHT22;4301;48.362;8.478;2022-08-25T06:58:06;17.00;99.90
8527;DHT22;4301;48.362;8.478;2022-08-25T07:00:35;17.20;99.90
8527;DHT22;4301;48.362;8.478;2022-08-25T07:03:03;17.50;99.90
8527;DHT22;4301;48.362;8.478;2022-08-25T07:05:30;17.80;99.90
8527;DHT22;4301;48.362;8.478;2022-08-25T07:07:57;18.10;99.90
8527;DHT22;4301;48.362;8.478;2022-08-25T07:10:24;18.40;99.90
8527;DHT22;4301;48.362;8.478;2022-08-25T07:12:51;18.70;99.90
8527;DHT22;4301;48.362;8.478;2022-08-25T07:15:18;19.10;99.90
8527;DHT22;4301;48.362;8.478;2022-08-25T07:17:47;19.40;99.90
8527;DHT22;4301;48.362;8.478;2022-08-25T07:20:15;19.70;99.90
8527;DHT22;4301;48.362;8.478;2022-08-25T07:22:42;20.00;99.90
8527;DHT22;4301;48.362;8.478;2022-08-25T07:25:09;20.20;99.90
8527;DHT22;4301;48.362;8.478;2022-08-25T07:27:37;20.50;99.90
8527;DHT22;4301;48.362;8.478;2022-08-25T07:30:07;20.80;99.90
8527;DHT22;4301;48.362;8.478;2022-08-25T07:32:34;21.10;99.90
8527;DHT22;4301;48.362;8.478;2022-08-25T07:35:03;21.30;99.90
8527;DHT22;4301;48.362;8.478;2022-08-25T07:37:42;21.50;99.90
8527;DHT22;4301;48.362;8.478;2022-08-25T07:40:12;21.70;99.90
8527;DHT22;4301;48.362;8.478;2022-08-25T07:42:40;22.00;99.90
8527;DHT22;4301;48.362;8.478;2022-08-25T07:45:09;22.10;99.90
8527;DHT22;4301;48.362;8.478;2022-08-25T07:47:36;22.40;99.90
8527;DHT22;4301;48.362;8.478;2022-08-25T07:50:06;22.60;99.90
8527;DHT22;4301;48.362;8.478;2022-08-25T07:52:34;22.70;99.90
8527;DHT22;4301;48.362;8.478;2022-08-25T07:55:02;22.90;99.90
8527;DHT22;4301;48.362;8.478;2022-08-25T07:57:29;23.10;99.90
8527;DHT22;4301;48.362;8.478;2022-08-25T07:59:56;23.30;99.90
8527;DHT22;4301;48.362;8.478;2022-08-25T08:02:25;23.30;99.90
8527;DHT22;4301;48.362;8.478;2022-08-25T08:04:52;23.30;99.90
8527;DHT22;4301;48.362;8.478;2022-08-25T08:07:23;23.20;99.90
8527;DHT22;4301;48.362;8.478;2022-08-25T08:09:51;23.50;99.90
8527;DHT22;4301;48.362;8.478;2022-08-25T08:12:18;23.80;99.90
8527;DHT22;4301;48.362;8.478;2022-08-25T08:14:45;24.10;99.90
8527;DHT22;4301;48.362;8.478;2022-08-25T08:17:13;24.20;99.90
8527;DHT22;4301;48.362;8.478;2022-08-25T08:19:40;24.30;99.90
8527;DHT22;4301;48.362;8.478;2022-08-25T08:22:07;24.30;99.90
8527;DHT22;4301;48.362;8.478;2022-08-25T08:24:37;24.60;99.90
8527;DHT22;4301;48.362;8.478;2022-08-25T08:27:05;24.70;99.90
8527;DHT22;4301;48.362;8.478;2022-08-25T08:29:33;24.70;99.90
8527;DHT22;4301;48.362;8.478;2022-08-25T08:32:01;24.60;99.90
8527;DHT22;4301;48.362;8.478;2022-08-25T08:34:29;24.50;99.90
8527;DHT22;4301;48.362;8.478;2022-08-25T08:36:56;24.70;99.90
8527;DHT22;4301;48.362;8.478;2022-08-25T08:39:27;25.00;99.90
8527;DHT22;4301;48.362;8.478;2022-08-25T08:42:02;24.70;99.90
8527;DHT22;4301;48.362;8.478;2022-08-25T08:47:50;26.00;99.90
8527;DHT22;4301;48.362;8.478;2022-08-25T08:50:29;26.10;99.90
8527;DHT22;4301;48.362;8.478;2022-08-25T08:53:02;26.20;99.90
8527;DHT22;4301;48.362;8.478;2022-08-25T08:55:41;26.50;99.90
8527;DHT22;4301;48.362;8.478;2022-08-25T08:58:14;26.90;99.90
8527;DHT22;4301;48.362;8.478;2022-08-25T09:00:46;27.10;99.90
8527;DHT22;4301;48.362;8.478;2022-08-25T09:03:24;27.10;99.90
8527;DHT22;4301;48.362;8.478;2022-08-25T09:05:55;27.40;99.90
8527;DHT22;4301;48.362;8.478;2022-08-25T09:08:22;27.50;99.90
8527;DHT22;4301;48.362;8.478;2022-08-25T09:10:58;27.70;99.90
8527;DHT22;4301;48.362;8.478;2022-08-25T09:13:35;28.00;99.90
8527;DHT22;4301;48.362;8.478;2022-08-25T09:16:10;28.60;99.90
8527;DHT22;4301;48.362;8.478;2022-08-25T09:19:08;28.40;99.90
8527;DHT22;4301;48.362;8.478;2022-08-25T09:21:42;29.10;99.90
8527;DHT22;4301;48.362;8.478;2022-08-25T09:24:24;29.40;99.90
8527;DHT22;4301;48.362;8.478;2022-08-25T09:27:01;29.50;99.70
8527;DHT22;4301;48.362;8.478;2022-08-25T09:29:43;29.60;98.10
8527;DHT22;4301;48.362;8.478;2022-08-25T09:32:13;29.60;97.40
8527;DHT22;4301;48.362;8.478;2022-08-25T09:34:41;29.80;97.40
8527;DHT22;4301;48.362;8.478;2022-08-25T09:37:09;30.20;95.40
8527;DHT22;4301;48.362;8.478;2022-08-25T09:39:36;29.90;94.60
8527;DHT22;4301;48.362;8.478;2022-08-25T09:42:04;30.30;94.00
8527;DHT22;4301;48.362;8.478;2022-08-25T09:44:37;30.50;92.90
8527;DHT22;4301;48.362;8.478;2022-08-25T09:47:14;30.70;91.80
8527;DHT22;4301;48.362;8.478;2022-08-25T09:49:46;30.60;90.50
8527;DHT22;4301;48.362;8.478;2022-08-25T09:52:31;30.60;90.50
8527;DHT22;4301;48.362;8.478;2022-08-25T09:55:00;31.20;90.20
8527;DHT22;4301;48.362;8.478;2022-08-25T09:57:45;31.40;86.10
8527;DHT22;4301;48.362;8.478;2022-08-25T10:00:18;31.70;85.80
8527;DHT22;4301;48.362;8.478;2022-08-25T10:03:05;32.10;82.70
8527;DHT22;4301;48.362;8.478;2022-08-25T10:05:34;32.80;82.60
8527;DHT22;4301;48.362;8.478;2022-08-25T10:08:10;33.50;79.20
8527;DHT22;4301;48.362;8.478;2022-08-25T10:10:42;33.30;76.70
8527;DHT22;4301;48.362;8.478;2022-08-25T10:13:13;34.00;76.30
8527;DHT22;4301;48.362;8.478;2022-08-25T10:15:41;33.80;71.70
8527;DHT22;4301;48.362;8.478;2022-08-25T10:18:24;33.70;71.90
8527;DHT22;4301;48.362;8.478;2022-08-25T10:21:04;34.10;71.80
8527;DHT22;4301;48.362;8.478;2022-08-25T10:23:33;34.00;69.70
8527;DHT22;4301;48.362;8.478;2022-08-25T10:26:04;34.30;67.60
8527;DHT22;4301;48.362;8.478;2022-08-25T10:28:41;34.10;66.20
8527;DHT22;4301;48.362;8.478;2022-08-25T10:31:18;34.10;67.10
8527;DHT22;4301;48.362;8.478;2022-08-25T10:33:58;34.60;65.30
8527;DHT22;4301;48.362;8.478;2022-08-25T10:36:37;34.40;66.20
8527;DHT22;4301;48.362;8.478;2022-08-25T10:39:15;35.30;66.70
8527;DHT22;4301;48.362;8.478;2022-08-25T10:41:51;35.60;63.70
8527;DHT22;4301;48.362;8.478;2022-08-25T10:44:26;33.30;65.70
8527;DHT22;4301;48.362;8.478;2022-08-25T10:47:43;31.50;68.50
8527;DHT22;4301;48.362;8.478;2022-08-25T10:50:22;30.50;71.30
8527;DHT22;4301;48.362;8.478;2022-08-25T10:53:11;30.40;70.90
8527;DHT22;4301;48.362;8.478;2022-08-25T10:55:47;31.60;70.10
8527;DHT22;4301;48.362;8.478;2022-08-25T10:58:23;32.50;67.60
8527;DHT22;4301;48.362;8.478;2022-08-25T11:01:00;33.40;66.80
8527;DHT22;4301;48.362;8.478;2022-08-25T11:03:41;34.90;65.00
8527;DHT22;4301;48.362;8.478;2022-08-25T11:06:15;35.20;62.60
8527;DHT22;4301;48.362;8.478;2022-08-25T11:08:47;33.30;63.50
8527;DHT22;4301;48.362;8.478;2022-08-25T11:11:24;31.80;66.50
8527;DHT22;4301;48.362;8.478;2022-08-25T11:13:57;32.50;65.80
8527;DHT22;4301;48.362;8.478;2022-08-25T11:16:34;33.90;64.60
8527;DHT22;4301;48.362;8.478;2022-08-25T11:19:08;35.10;61.90
8527;DHT22;4301;48.362;8.478;2022-08-25T11:21:43;36.00;60.50
8527;DHT22;4301;48.362;8.478;2022-08-25T11:24:26;35.60;60.20
8527;DHT22;4301;48.362;8.478;2022-08-25T11:26:56;33.50;61.80
8527;DHT22;4301;48.362;8.478;2022-08-25T11:29:27;32.50;63.70
8527;DHT22;4301;48.362;8.478;2022-08-25T11:31:58;32.20;65.70
8527;DHT22;4301;48.362;8.478;2022-08-25T11:34:31;32.00;65.70
8527;DHT22;4301;48.362;8.478;2022-08-25T11:37:06;32.30;65.80
8527;DHT22;4301;48.362;8.478;2022-08-25T11:39:59;32.60;65.10
8527;DHT22;4301;48.362;8.478;2022-08-25T11:42:45;31.80;65.70
8527;DHT22;4301;48.362;8.478;2022-08-25T11:48:16;31.60;65.30
8527;DHT22;4301;48.362;8.478;2022-08-25T11:50:59;31.20;66.00
8527;DHT22;4301;48.362;8.478;2022-08-25T11:53:33;30.70;66.90
8527;DHT22;4301;48.362;8.478;2022-08-25T11:56:04;30.50;67.90
8527;DHT22;4301;48.362;8.478;2022-08-25T11:58:49;30.40;68.60
8527;DHT22;4301;48.362;8.478;2022-08-25T12:04:38;31.30;68.00
8527;DHT22;4301;48.362;8.478;2022-08-25T12:07:27;31.20;67.30
8527;DHT22;4301;48.362;8.478;2022-08-25T12:13:03;30.80;69.50
8527;DHT22;4301;48.362;8.478;2022-08-25T12:15:57;31.20;67.90
8527;DHT22;4301;48.362;8.478;2022-08-25T12:18:43;31.30;67.00
8527;DHT22;4301;48.362;8.478;2022-08-25T12:21:33;31.50;67.20
8527;DHT22;4301;48.362;8.478;2022-08-25T12:24:10;31.60;66.90
8527;DHT22;4301;48.362;8.478;2022-08-25T12:26:51;31.60;65.00
8527;DHT22;4301;48.362;8.478;2022-08-25T12:29:29;31.40;64.70
8527;DHT22;4301;48.362;8.478;2022-08-25T12:32:16;31.40;65.70
8527;DHT22;4301;48.362;8.478;2022-08-25T12:35:08;31.10;65.70
8527;DHT22;4301;48.362;8.478;2022-08-25T12:37:57;31.10;65.10
8527;DHT22;4301;48.362;8.478;2022-08-25T12:40:32;31.10;66.20
8527;DHT22;4301;48.362;8.478;2022-08-25T12:43:08;31.40;66.70
8527;DHT22;4301;48.362;8.478;2022-08-25T12:45:42;31.10;67.20
8527;DHT22;4301;48.362;8.478;2022-08-25T12:48:44;31.50;66.90
8527;DHT22;4301;48.362;8.478;2022-08-25T12:51:20;31.30;65.00
8527;DHT22;4301;48.362;8.478;2022-08-25T12:53:50;30.80;66.70
8527;DHT22;4301;48.362;8.478;2022-08-25T12:56:25;30.60;67.50
8527;DHT22;4301;48.362;8.478;2022-08-25T12:59:07;30.30;67.50
8527;DHT22;4301;48.362;8.478;2022-08-25T13:01:49;30.10;67.20
8527;DHT22;4301;48.362;8.478;2022-08-25T13:04:56;30.10;68.60
8527;DHT22;4301;48.362;8.478;2022-08-25T13:07:38;30.60;66.50
8527;DHT22;4301;48.362;8.478;2022-08-25T13:10:20;30.10;66.60
8527;DHT22;4301;48.362;8.478;2022-08-25T13:12:57;30.20;67.90
8527;DHT22;4301;48.362;8.478;2022-08-25T13:15:33;30.40;66.60
8527;DHT22;4301;48.362;8.478;2022-08-25T13:18:19;30.90;66.00
8527;DHT22;4301;48.362;8.478;2022-08-25T13:20:48;31.00;66.80
8527;DHT22;4301;48.362;8.478;2022-08-25T13:23:21;30.50;65.10
8527;DHT22;4301;48.362;8.478;2022-08-25T13:25:50;30.40;65.80
8527;DHT22;4301;48.362;8.478;2022-08-25T13:28:25;30.30;64.80
8527;DHT22;4301;48.362;8.478;2022-08-25T13:30:58;30.60;65.70
8527;DHT22;4301;48.362;8.478;2022-08-25T13:36:15;30.10;65.20
8527;DHT22;4301;48.362;8.478;2022-08-25T13:39:11;30.10;65.70
8527;DHT22;4301;48.362;8.478;2022-08-25T13:41:44;30.40;67.30
8527;DHT22;4301;48.362;8.478;2022-08-25T13:44:13;30.60;66.70
8527;DHT22;4301;48.362;8.478;2022-08-25T13:46:41;30.10;64.40
8527;DHT22;4301;48.362;8.478;2022-08-25T13:49:09;30.30;67.00
8527;DHT22;4301;48.362;8.478;2022-08-25T13:51:37;30.00;65.20
8527;DHT22;4301;48.362;8.478;2022-08-25T13:54:07;30.20;66.90
8527;DHT22;4301;48.362;8.478;2022-08-25T13:56:37;30.60;67.00
8527;DHT22;4301;48.362;8.478;2022-08-25T13:59:17;30.60;65.80
8527;DHT22;4301;48.362;8.478;2022-08-25T14:01:52;30.70;66.00
8527;DHT22;4301;48.362;8.478;2022-08-25T14:04:29;31.00;64.10
8527;DHT22;4301;48.362;8.478;2022-08-25T14:07:24;31.00;65.10
8527;DHT22;4301;48.362;8.478;2022-08-25T14:09:53;31.20;65.10
8527;DHT22;4301;48.362;8.478;2022-08-25T14:12:33;31.20;65.60
8527;DHT22;4301;48.362;8.478;2022-08-25T14:15:06;31.30;64.80
8527;DHT22;4301;48.362;8.478;2022-08-25T14:17:35;31.40;64.50
8527;DHT22;4301;48.362;8.478;2022-08-25T14:20:03;31.30;63.80
8527;DHT22;4301;48.362;8.478;2022-08-25T14:22:30;31.10;63.80
8527;DHT22;4301;48.362;8.478;2022-08-25T14:24:57;30.30;63.40
8527;DHT22;4301;48.362;8.478;2022-08-25T14:27:24;30.40;63.60
8527;DHT22;4301;48.362;8.478;2022-08-25T14:29:52;30.60;63.40
8527;DHT22;4301;48.362;8.478;2022-08-25T14:32:20;30.70;63.10
8527;DHT22;4301;48.362;8.478;2022-08-25T14:34:47;30.90;65.20
8527;DHT22;4301;48.362;8.478;2022-08-25T14:37:17;31.30;64.40
8527;DHT22;4301;48.362;8.478;2022-08-25T14:39:45;31.00;63.30
8527;DHT22;4301;48.362;8.478;2022-08-25T14:42:12;31.00;64.10
8527;DHT22;4301;48.362;8.478;2022-08-25T14:44:41;30.80;66.30
8527;DHT22;4301;48.362;8.478;2022-08-25T14:47:08;31.00;63.50
8527;DHT22;4301;48.362;8.478;2022-08-25T14:49:40;30.00;63.90
8527;DHT22;4301;48.362;8.478;2022-08-25T14:52:14;29.70;65.20
8527;DHT22;4301;48.362;8.478;2022-08-25T14:54:42;30.00;66.70
8527;DHT22;4301;48.362;8.478;2022-08-25T14:57:09;30.30;64.40
8527;DHT22;4301;48.362;8.478;2022-08-25T14:59:36;30.40;63.80
8527;DHT22;4301;48.362;8.478;2022-08-25T15:02:04;30.40;66.40
8527;DHT22;4301;48.362;8.478;2022-08-25T15:04:34;30.60;64.20
8527;DHT22;4301;48.362;8.478;2022-08-25T15:07:03;30.50;66.30
8527;DHT22;4301;48.362;8.478;2022-08-25T15:09:51;30.40;64.90
8527;DHT22;4301;48.362;8.478;2022-08-25T15:12:16;30.60;66.40
8527;DHT22;4301;48.362;8.478;2022-08-25T15:14:43;30.60;64.60
8527;DHT22;4301;48.362;8.478;2022-08-25T15:17:15;30.00;63.90
8527;DHT22;4301;48.362;8.478;2022-08-25T15:19:43;29.80;65.50
8527;DHT22;4301;48.362;8.478;2022-08-25T15:22:11;29.70;66.80
8527;DHT22;4301;48.362;8.478;2022-08-25T15:24:38;29.80;66.30
8527;DHT22;4301;48.362;8.478;2022-08-25T15:27:07;29.70;66.90
8527;DHT22;4301;48.362;8.478;2022-08-25T15:29:34;29.60;66.30
8527;DHT22;4301;48.362;8.478;2022-08-25T15:32:04;29.50;67.90
8527;DHT22;4301;48.362;8.478;2022-08-25T15:34:33;29.70;68.20
8527;DHT22;4301;48.362;8.478;2022-08-25T15:37:06;30.00;67.30
8527;DHT22;4301;48.362;8.478;2022-08-25T15:39:35;30.20;65.70
8527;DHT22;4301;48.362;8.478;2022-08-25T15:42:03;29.70;65.30
8527;DHT22;4301;48.362;8.478;2022-08-25T15:44:31;29.60;67.40
8527;DHT22;4301;48.362;8.478;2022-08-25T15:46:58;29.80;67.60
8527;DHT22;4301;48.362;8.478;2022-08-25T15:49:26;29.80;64.80
8527;DHT22;4301;48.362;8.478;2022-08-25T15:51:54;29.80;64.90
8527;DHT22;4301;48.362;8.478;2022-08-25T15:54:22;29.70;64.50
8527;DHT22;4301;48.362;8.478;2022-08-25T15:56:51;29.70;64.90
8527;DHT22;4301;48.362;8.478;2022-08-25T15:59:18;29.60;67.70
8527;DHT22;4301;48.362;8.478;2022-08-25T16:01:45;29.50;65.80
8527;DHT22;4301;48.362;8.478;2022-08-25T16:04:13;29.50;65.10
8527;DHT22;4301;48.362;8.478;2022-08-25T16:06:40;29.40;64.50
8527;DHT22;4301;48.362;8.478;2022-08-25T16:09:07;29.30;65.00
8527;DHT22;4301;48.362;8.478;2022-08-25T16:11:34;29.10;66.50
8527;DHT22;4301;48.362;8.478;2022-08-25T16:14:05;29.00;67.10
8527;DHT22;4301;48.362;8.478;2022-08-25T16:16:32;29.00;66.80
8527;DHT22;4301;48.362;8.478;2022-08-25T16:18:59;29.00;66.00
8527;DHT22;4301;48.362;8.478;2022-08-25T16:21:28;29.10;66.80
8527;DHT22;4301;48.362;8.478;2022-08-25T16:23:58;29.00;66.70
8527;DHT22;4301;48.362;8.478;2022-08-25T16:26:25;29.00;69.00
8527;DHT22;4301;48.362;8.478;2022-08-25T16:28:53;29.00;66.50
8527;DHT22;4301;48.362;8.478;2022-08-25T16:31:22;28.80;68.60
8527;DHT22;4301;48.362;8.478;2022-08-25T16:33:49;28.70;67.90
8527;DHT22;4301;48.362;8.478;2022-08-25T16:36:17;28.50;66.40
8527;DHT22;4301;48.362;8.478;2022-08-25T16:38:45;28.40;66.70
8527;DHT22;4301;48.362;8.478;2022-08-25T16:41:14;28.40;66.40
8527;DHT22;4301;48.362;8.478;2022-08-25T16:43:43;28.30;66.80